Time;durP1;ratioP1;P1;durP2;ratioP2;P2;SDS_P1;SDS_P2;PMS_P1;PMS_P2;Temp;Humidity;BMP_temperature;BMP_pressure;BME280_temperature;BME280_humidity;BME280_pressure;Samples;Min_cycle;Max_cycle;Signal;HPM_P1;HPM_P2
2023/08/12 00:01:55;;;;;;;1.60;1.50;;;19.40;99.90;;;;;;4982664;28;20046;-89
2023/08/12 00:04:21;;;;;;;1.65;1.55;;;19.90;99.90;;;;;;4980287;28;20056;-88
2023/08/12 00:06:46;;;;;;;1.80;1.70;;;20.30;99.90;;;;;;4979611;28;20128;-88
2023/08/12 00:09:12;;;;;;;1.70;1.60;;;19.40;99.90;;;;;;4996491;28;20068;-89
2023/08/12 00:11:38;;;;;;;1.80;1.70;;;19.40;99.90;;;;;;4995410;28;20045;-88
2023/08/12 00:14:04;;;;;;;1.60;1.50;;;19.30;99.90;;;;;;5001318;28;20092;-88
2023/08/12 00:16:30;;;;;;;1.60;1.50;;;20.10;99.90;;;;;;4982926;28;20042;-89
2023/08/12 00:18:58;;;;;;;1.60;1.50;;;20.00;99.90;;;;;;4981262;28;20038;-90
2023/08/12 00:21:24;;;;;;;1.50;1.40;;;19.70;99.90;;;;;;4996101;28;20458;-89
2023/08/12 00:23:50;;;;;;;1.40;1.40;;;19.70;99.90;;;;;;5017599;28;20085;-89
2023/08/12 00:26:16;;;;;;;1.40;1.35;;;19.20;99.90;;;;;;5000015;28;20092;-90
2023/08/12 00:28:42;;;;;;;1.27;1.27;;;19.70;99.90;;;;;;4981333;28;20049;-89
2023/08/12 00:31:07;;;;;;;1.25;1.25;;;20.10;99.90;;;;;;4981430;28;20050;-88
2023/08/12 00:33:33;;;;;;;1.30;1.30;;;19.90;99.90;;;;;;4983144;28;20454;-89
2023/08/12 00:35:59;;;;;;;1.40;1.40;;;20.00;99.90;;;;;;4982036;28;20042;-89
2023/08/12 00:38:25;;;;;;;1.20;1.20;;;20.10;99.90;;;;;;4990827;28;20408;-87
2023/08/12 00:40:50;;;;;;;1.30;1.30;;;20.00;99.90;;;;;;4995367;28;20125;-89
2023/08/12 00:43:16;;;;;;;1.20;1.20;;;19.20;99.90;;;;;;4997298;28;20175;-89
2023/08/12 00:45:42;;;;;;;1.20;1.20;;;19.80;99.90;;;;;;4996955;28;20053;-89
2023/08/12 00:48:09;;;;;;;1.10;1.10;;;20.00;99.90;;;;;;5001168;28;20054;-88
2023/08/12 00:50:37;;;;;;;1.20;1.20;;;19.90;99.90;;;;;;5001071;28;20166;-89
2023/08/12 00:53:05;;;;;;;1.10;1.10;;;19.20;99.90;;;;;;5009673;28;20049;-89
2023/08/12 00:55:32;;;;;;;1.10;1.10;;;19.10;99.90;;;;;;5000896;28;20052;-88
2023/08/12 00:57:58;;;;;;;0.80;0.80;;;19.50;99.90;;;;;;4986454;28;20084;-89
2023/08/12 01:00:24;;;;;;;0.80;0.80;;;19.10;99.90;;;;;;5003320;28;20097;-88
2023/08/12 01:02:52;;;;;;;0.80;0.80;;;19.20;99.90;;;;;;4998334;28;20046;-88
2023/08/12 01:05:18;;;;;;;0.90;0.90;;;19.10;99.90;;;;;;4998227;28;20097;-89
2023/08/12 01:07:45;;;;;;;0.80;0.80;;;19.10;99.90;;;;;;5005516;28;20100;-89
2023/08/12 01:10:14;;;;;;;0.90;0.90;;;19.60;99.90;;;;;;4991701;28;20059;-89
2023/08/12 01:13:08;;;;;;;0.90;0.90;;;19.90;99.90;;;;;;4989798;28;20569;-90
2023/08/12 01:15:35;;;;;;;0.85;0.85;;;19.00;99.90;;;;;;4982410;28;20148;-89
2023/08/12 01:18:01;;;;;;;0.80;0.80;;;19.10;99.90;;;;;;5000388;28;20038;-88
2023/08/12 01:20:30;;;;;;;0.80;0.80;;;19.10;99.90;;;;;;5021780;28;20049;-89
2023/08/12 01:23:13;;;;;;;0.80;0.80;;;19.90;99.90;;;;;;4985933;28;20050;-89
2023/08/12 01:25:39;;;;;;;0.80;0.80;;;19.80;99.90;;;;;;4999654;28;20077;-89
2023/08/12 01:28:06;;;;;;;0.80;0.80;;;19.80;99.90;;;;;;5000369;28;20046;-89
2023/08/12 01:30:35;;;;;;;0.70;0.70;;;19.30;99.90;;;;;;5002837;28;20056;-89
2023/08/12 01:33:14;;;;;;;0.70;0.70;;;19.90;99.90;;;;;;5001669;28;20046;-90
2023/08/12 01:35:43;;;;;;;0.60;0.60;;;19.80;99.90;;;;;;4985085;28;20480;-88
2023/08/12 01:38:10;;;;;;;0.70;0.70;;;19.10;99.90;;;;;;5001313;28;20042;-88
2023/08/12 01:40:40;;;;;;;0.70;0.70;;;19.40;99.90;;;;;;4995455;28;20050;-88
2023/08/12 01:43:08;;;;;;;0.70;0.70;;;19.40;99.90;;;;;;5001456;28;20133;-89
2023/08/12 01:45:33;;;;;;;0.70;0.70;;;19.90;99.90;;;;;;4982517;28;20052;-88
2023/08/12 01:47:59;;;;;;;0.60;0.60;;;19.10;99.90;;;;;;4999637;28;20058;-88
2023/08/12 01:50:25;;;;;;;0.60;0.60;;;19.10;99.90;;;;;;4981130;28;20764;-89
2023/08/12 01:52:51;;;;;;;0.60;0.60;;;19.80;99.90;;;;;;4999273;28;20789;-89
2023/08/12 01:55:20;;;;;;;0.70;0.70;;;20.00;99.90;;;;;;4984451;28;20129;-90
2023/08/12 01:57:45;;;;;;;0.70;0.70;;;20.00;99.90;;;;;;4984856;28;20042;-89
2023/08/12 02:00:11;;;;;;;0.60;0.60;;;19.80;99.90;;;;;;4990959;28;20073;-89
2023/08/12 02:02:37;;;;;;;0.60;0.60;;;19.50;99.90;;;;;;4997454;28;20131;-89
2023/08/12 02:05:03;;;;;;;0.60;0.60;;;19.80;99.90;;;;;;4991430;28;20630;-90
2023/08/12 02:07:29;;;;;;;0.60;0.60;;;19.30;99.90;;;;;;4987889;28;20558;-89
2023/08/12 02:09:54;;;;;;;0.60;0.60;;;19.50;99.90;;;;;;4984152;28;20073;-90
2023/08/12 02:12:20;;;;;;;0.60;0.60;;;19.00;99.90;;;;;;5004579;28;20053;-89
2023/08/12 02:14:46;;;;;;;0.60;0.60;;;19.20;99.90;;;;;;4992779;28;20107;-88
2023/08/12 02:17:11;;;;;;;0.65;0.65;;;19.10;99.90;;;;;;4987068;28;20141;-90
2023/08/12 02:19:37;;;;;;;0.60;0.60;;;19.00;99.90;;;;;;4985712;28;20045;-90
2023/08/12 02:22:03;;;;;;;0.70;0.70;;;19.40;99.90;;;;;;5002724;28;20364;-88
2023/08/12 02:24:29;;;;;;;0.60;0.60;;;19.90;99.90;;;;;;4981964;28;20042;-89
2023/08/12 02:26:55;;;;;;;0.60;0.60;;;19.70;99.90;;;;;;4990263;28;20042;-88
2023/08/12 02:29:21;;;;;;;0.68;0.68;;;19.30;99.90;;;;;;5000960;28;20140;-89
2023/08/12 02:31:46;;;;;;;0.70;0.70;;;20.00;99.90;;;;;;4986303;28;20136;-90
2023/08/12 02:34:12;;;;;;;0.60;0.60;;;19.40;99.90;;;;;;4979829;28;20047;-90
2023/08/12 02:36:38;;;;;;;0.70;0.70;;;19.80;99.90;;;;;;4998591;28;20693;-90
2023/08/12 02:39:04;;;;;;;0.70;0.70;;;20.00;99.90;;;;;;4988980;28;21500;-89
2023/08/12 02:41:30;;;;;;;0.70;0.70;;;19.50;99.90;;;;;;4989600;28;20103;-90
2023/08/12 02:43:56;;;;;;;0.70;0.70;;;19.20;99.90;;;;;;5000463;28;20057;-90
2023/08/12 02:46:22;;;;;;;0.80;0.80;;;19.70;99.90;;;;;;4988908;28;20050;-90
2023/08/12 02:48:48;;;;;;;0.77;0.77;;;19.60;99.90;;;;;;5002357;28;20057;-89
2023/08/12 02:51:13;;;;;;;0.70;0.70;;;19.50;99.90;;;;;;4999430;28;20694;-90
2023/08/12 02:53:39;;;;;;;0.82;0.82;;;19.80;99.90;;;;;;4996673;28;20133;-89
2023/08/12 02:56:05;;;;;;;0.70;0.70;;;20.00;99.90;;;;;;5001222;28;20100;-90
2023/08/12 02:58:31;;;;;;;0.90;0.90;;;19.50;99.90;;;;;;4982777;28;20049;-90
2023/08/12 03:00:56;;;;;;;0.88;0.88;;;19.40;99.90;;;;;;5020194;28;20182;-90
2023/08/12 03:03:22;;;;;;;0.80;0.80;;;19.40;99.90;;;;;;5014898;28;20046;-89
2023/08/12 03:05:48;;;;;;;0.80;0.80;;;20.00;99.90;;;;;;4999880;28;20125;-89
2023/08/12 03:08:14;;;;;;;0.80;0.80;;;19.70;99.90;;;;;;5003754;28;20042;-91
2023/08/12 03:10:41;;;;;;;0.80;0.80;;;20.00;99.90;;;;;;5002019;28;20633;-92
2023/08/12 03:13:06;;;;;;;0.90;0.90;;;19.10;99.90;;;;;;5001780;28;20096;-90
2023/08/12 03:15:32;;;;;;;0.93;0.93;;;19.10;99.90;;;;;;5000709;28;20073;-88
2023/08/12 03:17:58;;;;;;;0.93;0.93;;;19.60;99.90;;;;;;5000835;28;20042;-91
2023/08/12 03:20:23;;;;;;;0.95;0.95;;;19.80;99.90;;;;;;5006670;28;20388;-91
2023/08/12 03:22:49;;;;;;;0.90;0.90;;;19.90;99.90;;;;;;4983820;28;20414;-91
2023/08/12 03:25:15;;;;;;;1.00;1.00;;;19.10;99.90;;;;;;4996352;28;20053;-90
2023/08/12 03:27:41;;;;;;;0.95;0.95;;;19.20;99.90;;;;;;4984281;28;20054;-89
2023/08/12 03:30:09;;;;;;;0.90;0.90;;;19.80;99.90;;;;;;4987482;28;20042;-90
2023/08/12 03:32:34;;;;;;;1.00;1.00;;;19.30;99.90;;;;;;4997894;28;20105;-89
2023/08/12 03:35:00;;;;;;;0.90;0.90;;;19.40;99.90;;;;;;4983445;28;20443;-91
2023/08/12 03:37:26;;;;;;;1.10;1.10;;;18.80;99.90;;;;;;4980332;28;20050;-89
2023/08/12 03:39:52;;;;;;;1.20;1.20;;;19.20;99.90;;;;;;5000707;28;20045;-90
2023/08/12 03:42:17;;;;;;;1.10;1.10;;;19.00;99.90;;;;;;4998342;28;20092;-90
2023/08/12 03:44:46;;;;;;;1.02;1.02;;;19.30;99.90;;;;;;4989023;28;20052;-89
2023/08/12 03:47:12;;;;;;;1.00;1.00;;;18.50;99.90;;;;;;4974430;28;20128;-88
2023/08/12 03:49:38;;;;;;;1.15;1.15;;;18.50;99.90;;;;;;4997382;28;20050;-88
2023/08/12 03:52:04;;;;;;;1.10;1.10;;;18.50;99.90;;;;;;5002754;28;20041;-89
2023/08/12 03:54:30;;;;;;;1.20;1.20;;;19.00;99.90;;;;;;5001274;28;20042;-89
2023/08/12 03:56:55;;;;;;;1.10;1.10;;;19.20;99.90;;;;;;4999135;28;20133;-89
2023/08/12 03:59:21;;;;;;;1.13;1.13;;;19.10;99.90;;;;;;4999033;28;20463;-90
2023/08/12 04:01:47;;;;;;;1.00;1.00;;;18.80;99.90;;;;;;5001733;28;20038;-89
2023/08/12 04:04:13;;;;;;;1.10;1.10;;;18.70;99.90;;;;;;4982917;28;20589;-90
2023/08/12 04:06:38;;;;;;;0.90;0.90;;;19.50;99.90;;;;;;4997329;28;20599;-89
2023/08/12 04:09:05;;;;;;;1.58;1.48;;;18.80;99.90;;;;;;5012789;28;20046;-89
2023/08/12 04:11:31;;;;;;;1.65;1.55;;;18.90;99.90;;;;;;4997849;28;20642;-89
2023/08/12 04:13:56;;;;;;;1.10;1.10;;;19.50;99.90;;;;;;4996710;28;20038;-90
2023/08/12 04:16:23;;;;;;;1.95;1.85;;;19.20;99.90;;;;;;4984961;28;20050;-89
2023/08/12 04:18:48;;;;;;;1.00;1.00;;;19.00;99.90;;;;;;4997076;28;20056;-89
2023/08/12 04:21:14;;;;;;;1.65;1.55;;;18.50;99.90;;;;;;4980779;28;20043;-89
2023/08/12 04:23:40;;;;;;;1.10;1.10;;;19.60;99.90;;;;;;4999094;28;20046;-89
2023/08/12 04:26:05;;;;;;;1.95;1.85;;;19.30;99.90;;;;;;5001625;28;20495;-89
2023/08/12 04:28:31;;;;;;;1.30;1.30;;;19.60;99.90;;;;;;5001389;28;20111;-89
2023/08/12 04:30:57;;;;;;;2.08;1.98;;;19.20;99.90;;;;;;4998468;28;20034;-89
2023/08/12 04:33:23;;;;;;;1.67;1.58;;;18.70;99.90;;;;;;4986759;28;20057;-89
2023/08/12 04:35:49;;;;;;;2.05;1.95;;;19.60;99.90;;;;;;4997553;28;20054;-88
2023/08/12 04:38:15;;;;;;;2.00;1.90;;;19.00;99.90;;;;;;4996749;28;20054;-88
2023/08/12 04:40:42;;;;;;;2.17;2.08;;;19.40;99.90;;;;;;4998667;28;20115;-89
2023/08/12 04:43:09;;;;;;;1.92;1.83;;;19.20;99.90;;;;;;4982323;28;20054;-89
2023/08/12 04:45:34;;;;;;;2.05;1.95;;;19.80;99.90;;;;;;4982419;28;20042;-89
2023/08/12 04:48:00;;;;;;;1.90;1.80;;;19.50;99.90;;;;;;4999289;28;20416;-89
2023/08/12 04:50:29;;;;;;;1.98;1.88;;;18.80;99.90;;;;;;4998618;28;20381;-89
2023/08/12 04:52:55;;;;;;;2.03;1.92;;;19.80;99.90;;;;;;4999742;28;20034;-88
2023/08/12 04:55:20;;;;;;;2.00;1.90;;;18.70;99.90;;;;;;4998892;28;20072;-89
2023/08/12 04:57:46;;;;;;;2.00;1.90;;;19.40;99.90;;;;;;5004803;28;20270;-89
2023/08/12 05:00:12;;;;;;;1.90;1.80;;;18.90;99.90;;;;;;4997443;28;20069;-90
2023/08/12 05:02:39;;;;;;;1.67;1.58;;;19.90;99.90;;;;;;4987534;28;20049;-90
2023/08/12 05:05:05;;;;;;;1.60;1.50;;;19.20;99.90;;;;;;4980917;28;20128;-90
2023/08/12 05:07:31;;;;;;;1.60;1.50;;;19.60;99.90;;;;;;4994722;28;20495;-89
2023/08/12 05:09:56;;;;;;;1.00;1.00;;;19.40;99.90;;;;;;4983953;28;20117;-89
2023/08/12 05:12:22;;;;;;;1.10;1.10;;;19.70;99.90;;;;;;4999936;28;20042;-90
2023/08/12 05:14:48;;;;;;;1.10;1.10;;;19.50;99.90;;;;;;5012126;28;20074;-89
2023/08/12 05:17:13;;;;;;;1.30;1.30;;;19.90;99.90;;;;;;4986656;28;20507;-90
2023/08/12 05:19:39;;;;;;;1.40;1.35;;;19.10;99.90;;;;;;5016466;28;20043;-90
2023/08/12 05:22:05;;;;;;;1.48;1.38;;;19.80;99.90;;;;;;4997922;28;20495;-90
2023/08/12 05:24:30;;;;;;;1.23;1.23;;;19.50;99.90;;;;;;4998424;28;20054;-89
2023/08/12 05:26:56;;;;;;;1.10;1.10;;;19.90;99.90;;;;;;4999652;28;20572;-89
2023/08/12 05:29:22;;;;;;;1.17;1.17;;;19.00;99.90;;;;;;4996924;28;20081;-89
2023/08/12 05:31:48;;;;;;;1.10;1.10;;;19.30;99.90;;;;;;4989867;28;20165;-96
2023/08/12 05:34:13;;;;;;;1.08;1.08;;;19.60;99.90;;;;;;4989727;28;20046;-94
2023/08/12 05:36:39;;;;;;;1.00;1.00;;;19.90;99.90;;;;;;4984155;28;20462;-89
2023/08/12 05:39:05;;;;;;;1.00;1.00;;;19.60;99.90;;;;;;4984879;28;20045;-89
2023/08/12 05:41:31;;;;;;;0.90;0.90;;;20.50;99.90;;;;;;5004465;28;20052;-89
2023/08/12 05:43:57;;;;;;;1.00;1.00;;;20.40;99.90;;;;;;5004965;28;20046;-90
2023/08/12 05:46:22;;;;;;;0.90;0.90;;;19.70;99.90;;;;;;5002738;28;20057;-88
2023/08/12 05:48:48;;;;;;;0.90;0.90;;;19.60;99.90;;;;;;4998234;28;20433;-88
2023/08/12 05:51:14;;;;;;;0.80;0.80;;;20.10;99.90;;;;;;5004278;28;20488;-90
2023/08/12 05:53:39;;;;;;;0.90;0.90;;;20.90;99.90;;;;;;4998411;28;20070;-92
2023/08/12 05:56:05;;;;;;;0.90;0.90;;;21.20;99.90;;;;;;4991189;28;20041;-90
2023/08/12 05:58:31;;;;;;;0.90;0.90;;;20.00;99.90;;;;;;5000989;28;20073;-89
2023/08/12 06:00:57;;;;;;;0.80;0.80;;;20.40;99.90;;;;;;5000338;28;20092;-90
2023/08/12 06:03:22;;;;;;;0.80;0.80;;;21.10;99.90;;;;;;5003959;28;20067;-89
2023/08/12 06:05:48;;;;;;;0.80;0.80;;;21.50;99.90;;;;;;4989098;28;20557;-90
2023/08/12 06:08:14;;;;;;;0.70;0.70;;;21.80;99.90;;;;;;4991888;28;20050;-88
2023/08/12 06:10:43;;;;;;;0.80;0.80;;;21.40;99.90;;;;;;4989060;28;20065;-95
2023/08/12 06:13:09;;;;;;;0.80;0.80;;;21.40;99.90;;;;;;4989967;28;20502;-93
2023/08/12 06:15:38;;;;;;;0.85;0.85;;;22.10;99.90;;;;;;4984261;28;20053;-90
2023/08/12 06:18:04;;;;;;;0.90;0.90;;;21.80;99.90;;;;;;4999464;28;20041;-88
2023/08/12 06:20:30;;;;;;;0.90;0.90;;;21.40;99.90;;;;;;4991298;28;20825;-90
2023/08/12 06:22:56;;;;;;;0.90;0.90;;;21.70;99.90;;;;;;5001746;28;20502;-90
2023/08/12 06:25:27;;;;;;;1.00;1.00;;;21.20;99.90;;;;;;4988261;28;20142;-93
2023/08/12 06:27:53;;;;;;;1.00;1.00;;;21.20;99.90;;;;;;4997534;28;20045;-93
2023/08/12 06:30:18;;;;;;;0.90;0.90;;;21.70;99.90;;;;;;4990732;28;20042;-93
2023/08/12 06:32:44;;;;;;;0.90;0.90;;;21.80;99.90;;;;;;4984600;28;20049;-92
2023/08/12 06:35:10;;;;;;;0.80;0.80;;;21.30;99.90;;;;;;4991024;28;20050;-90
2023/08/12 06:37:35;;;;;;;0.70;0.70;;;21.20;99.90;;;;;;4999545;28;20407;-89
2023/08/12 06:40:01;;;;;;;0.63;0.63;;;21.70;99.90;;;;;;4986024;28;20084;-91
2023/08/12 06:42:27;;;;;;;0.75;0.75;;;21.70;99.90;;;;;;4987808;28;20054;-89
2023/08/12 06:44:57;;;;;;;0.70;0.70;;;21.70;99.90;;;;;;4986979;28;20046;-93
2023/08/12 06:47:23;;;;;;;0.60;0.60;;;21.50;99.90;;;;;;4983802;28;20395;-91
2023/08/12 06:49:49;;;;;;;0.60;0.60;;;21.60;99.90;;;;;;4998651;28;20488;-88
2023/08/12 06:52:17;;;;;;;0.50;0.50;;;21.40;99.90;;;;;;5002834;28;20108;-90
2023/08/12 06:54:43;;;;;;;0.60;0.60;;;21.30;99.90;;;;;;4987242;28;20123;-90
2023/08/12 06:57:09;;;;;;;0.50;0.50;;;21.50;99.90;;;;;;4983750;28;20542;-93
2023/08/12 06:59:34;;;;;;;0.50;0.50;;;21.40;99.90;;;;;;5002566;28;20042;-87
2023/08/12 07:02:03;;;;;;;0.50;0.50;;;21.40;99.90;;;;;;4999934;28;20050;-91
2023/08/12 07:04:29;;;;;;;0.50;0.50;;;21.50;99.90;;;;;;4985664;28;20050;-89
2023/08/12 07:06:55;;;;;;;0.60;0.60;;;21.50;99.90;;;;;;4998149;28;20049;-89
2023/08/12 07:09:21;;;;;;;0.65;0.65;;;21.40;99.90;;;;;;4993983;28;20100;-91
2023/08/12 07:11:47;;;;;;;0.60;0.60;;;21.20;99.90;;;;;;4999715;28;20377;-86
2023/08/12 07:14:12;;;;;;;0.70;0.70;;;21.40;99.90;;;;;;4984943;28;20136;-90
2023/08/12 07:16:38;;;;;;;0.60;0.60;;;21.20;99.90;;;;;;4976942;28;20403;-89
2023/08/12 07:19:04;;;;;;;0.60;0.60;;;21.60;99.90;;;;;;4981196;28;20044;-90
2023/08/12 07:21:29;;;;;;;0.60;0.60;;;21.00;99.90;;;;;;4980851;28;20140;-89
2023/08/12 07:23:55;;;;;;;0.70;0.70;;;21.40;99.90;;;;;;4996730;28;20046;-90
2023/08/12 07:26:21;;;;;;;0.60;0.60;;;21.20;99.90;;;;;;4980901;28;20049;-89
2023/08/12 07:28:51;;;;;;;0.60;0.60;;;21.40;99.90;;;;;;4983060;28;20089;-89
2023/08/12 07:31:18;;;;;;;0.55;0.55;;;21.40;99.90;;;;;;4983159;28;20786;-90
2023/08/12 07:33:43;;;;;;;0.60;0.60;;;21.00;99.90;;;;;;4996429;28;20188;-91
2023/08/12 07:36:09;;;;;;;0.57;0.57;;;20.80;99.90;;;;;;4990145;28;20482;-88
2023/08/12 07:38:35;;;;;;;0.60;0.60;;;21.10;99.90;;;;;;4980215;28;20053;-89
2023/08/12 07:41:00;;;;;;;0.60;0.60;;;21.30;99.90;;;;;;4996584;28;20069;-87
2023/08/12 07:43:26;;;;;;;0.60;0.60;;;20.80;99.90;;;;;;5011548;28;20053;-88
2023/08/12 07:45:53;;;;;;;0.60;0.60;;;21.20;99.90;;;;;;4978295;28;20081;-88
2023/08/12 07:48:22;;;;;;;0.50;0.50;;;20.70;99.90;;;;;;5000212;28;20053;-88
2023/08/12 07:50:54;;;;;;;0.50;0.50;;;20.80;99.90;;;;;;4994885;28;20042;-87
2023/08/12 07:53:20;;;;;;;0.50;0.50;;;20.90;99.90;;;;;;4996570;28;20058;-87
2023/08/12 07:55:46;;;;;;;0.50;0.50;;;20.80;99.90;;;;;;4993337;28;20266;-88
2023/08/12 07:58:12;;;;;;;0.50;0.50;;;20.90;99.90;;;;;;4995480;28;20046;-87
2023/08/12 08:00:38;;;;;;;0.57;0.57;;;21.30;99.90;;;;;;4993942;28;20046;-87
2023/08/12 08:03:04;;;;;;;0.60;0.60;;;21.00;99.90;;;;;;4993040;28;20049;-86
2023/08/12 08:05:30;;;;;;;0.50;0.50;;;21.30;99.90;;;;;;4993019;28;20392;-85
2023/08/12 08:07:55;;;;;;;0.57;0.57;;;20.70;99.90;;;;;;4995284;28;20103;-87
2023/08/12 08:10:21;;;;;;;0.50;0.50;;;20.50;99.90;;;;;;4993033;28;20073;-87
2023/08/12 08:12:47;;;;;;;0.60;0.60;;;21.00;99.90;;;;;;4994720;28;20038;-87
2023/08/12 08:15:12;;;;;;;0.50;0.50;;;20.40;99.90;;;;;;4991933;28;20109;-86
2023/08/12 08:17:38;;;;;;;0.50;0.50;;;20.50;99.90;;;;;;4993718;28;20108;-87
2023/08/12 08:20:05;;;;;;;0.60;0.60;;;21.20;99.90;;;;;;4975530;28;20491;-85
2023/08/12 08:22:31;;;;;;;0.50;0.50;;;21.00;99.90;;;;;;4991840;28;20125;-86
2023/08/12 08:24:57;;;;;;;0.50;0.50;;;20.80;99.90;;;;;;4990964;28;20061;-87
2023/08/12 08:27:23;;;;;;;0.50;0.50;;;21.00;99.90;;;;;;4996002;28;20046;-86
2023/08/12 08:29:49;;;;;;;0.50;0.50;;;21.30;99.90;;;;;;4992258;28;20082;-86
2023/08/12 08:32:14;;;;;;;0.60;0.60;;;21.30;99.90;;;;;;4991060;28;20677;-85
2023/08/12 08:34:40;;;;;;;0.50;0.50;;;21.10;99.90;;;;;;4996968;28;20046;-84
2023/08/12 08:37:05;;;;;;;0.50;0.50;;;21.00;99.90;;;;;;4992314;28;20038;-87
2023/08/12 08:39:31;;;;;;;0.50;0.50;;;20.60;99.90;;;;;;4993641;28;20073;-85
2023/08/12 08:41:58;;;;;;;0.52;0.52;;;21.20;99.90;;;;;;4992283;28;20522;-85
2023/08/12 08:44:30;;;;;;;0.52;0.52;;;21.00;99.90;;;;;;4991395;28;20394;-86
2023/08/12 08:46:59;;;;;;;0.50;0.50;;;20.70;99.90;;;;;;5011698;28;20408;-85
2023/08/12 08:49:26;;;;;;;0.57;0.57;;;21.20;99.90;;;;;;4991138;28;20100;-85
2023/08/12 08:51:52;;;;;;;0.60;0.60;;;21.40;99.90;;;;;;4985970;28;20124;-85
2023/08/12 08:54:19;;;;;;;0.60;0.60;;;21.40;99.90;;;;;;4983720;28;20173;-86
2023/08/12 08:56:45;;;;;;;0.60;0.60;;;21.40;99.90;;;;;;4978858;28;20037;-85
2023/08/12 08:59:11;;;;;;;0.60;0.60;;;20.40;99.90;;;;;;4987955;28;20042;-85
2023/08/12 09:01:39;;;;;;;0.60;0.60;;;20.70;99.90;;;;;;4990622;28;20765;-84
2023/08/12 09:04:06;;;;;;;0.60;0.60;;;21.40;99.90;;;;;;4987444;28;20065;-83
2023/08/12 09:06:33;;;;;;;0.60;0.60;;;20.90;99.90;;;;;;4989345;28;20049;-84
2023/08/12 09:09:01;;;;;;;0.50;0.50;;;20.50;99.90;;;;;;5012922;28;20084;-84
2023/08/12 09:11:26;;;;;;;0.50;0.50;;;20.50;99.90;;;;;;4995615;28;20065;-85
2023/08/12 09:13:52;;;;;;;0.60;0.60;;;20.80;99.90;;;;;;4994299;28;20042;-84
2023/08/12 09:16:18;;;;;;;0.50;0.50;;;20.80;99.90;;;;;;4991343;28;20111;-84
2023/08/12 09:18:44;;;;;;;0.50;0.50;;;20.40;99.90;;;;;;4988219;28;20042;-84
2023/08/12 09:21:11;;;;;;;0.50;0.50;;;20.50;99.90;;;;;;4992439;28;20632;-85
2023/08/12 09:23:41;;;;;;;0.50;0.50;;;20.90;99.90;;;;;;4994487;28;20467;-85
2023/08/12 09:26:15;;;;;;;0.52;0.52;;;20.50;99.90;;;;;;4972212;28;20135;-84
2023/08/12 09:28:45;;;;;;;0.50;0.50;;;20.60;99.90;;;;;;4988317;28;20061;-85
2023/08/12 09:31:28;;;;;;;0.50;0.50;;;20.80;99.90;;;;;;4999466;28;20116;-85
2023/08/12 09:33:58;;;;;;;0.50;0.50;;;20.30;99.90;;;;;;4984801;28;20057;-87
2023/08/12 09:36:24;;;;;;;0.50;0.50;;;20.40;99.90;;;;;;4996844;28;20057;-86
2023/08/12 09:38:49;;;;;;;0.50;0.50;;;20.20;99.90;;;;;;4997729;28;20041;-85
2023/08/12 09:41:15;;;;;;;0.50;0.50;;;21.10;99.90;;;;;;5001780;28;20042;-85
2023/08/12 09:43:42;;;;;;;0.50;0.50;;;20.30;99.90;;;;;;4996260;28;20115;-85
2023/08/12 09:46:12;;;;;;;0.50;0.50;;;21.10;99.90;;;;;;4990241;28;20133;-85
2023/08/12 09:48:38;;;;;;;0.70;0.70;;;21.20;99.90;;;;;;4995565;28;20049;-86
2023/08/12 09:51:04;;;;;;;0.70;0.70;;;21.20;99.90;;;;;;4990286;28;20806;-85
2023/08/12 09:53:30;;;;;;;0.70;0.70;;;19.90;99.90;;;;;;4994423;28;20041;-84
2023/08/12 09:56:01;;;;;;;0.65;0.65;;;19.80;99.90;;;;;;4989982;28;20064;-83
2023/08/12 09:58:29;;;;;;;0.70;0.70;;;20.60;99.90;;;;;;4993839;28;20045;-84
2023/08/12 10:00:55;;;;;;;0.70;0.70;;;20.40;99.90;;;;;;4988701;28;20058;-83
2023/08/12 10:03:23;;;;;;;0.60;0.60;;;19.80;99.90;;;;;;4996232;28;20061;-84
2023/08/12 10:05:49;;;;;;;0.60;0.60;;;19.80;99.90;;;;;;4999095;28;20050;-84
2023/08/12 10:08:16;;;;;;;0.60;0.60;;;20.60;99.90;;;;;;4993673;28;20572;-83
2023/08/12 10:10:42;;;;;;;0.60;0.60;;;20.80;99.90;;;;;;4994478;28;20057;-84
2023/08/12 10:13:10;;;;;;;0.60;0.60;;;20.70;99.90;;;;;;4995525;28;20108;-87
2023/08/12 10:15:36;;;;;;;0.60;0.60;;;20.90;99.90;;;;;;5011869;28;20111;-87
2023/08/12 10:18:05;;;;;;;0.60;0.60;;;20.10;99.90;;;;;;4997138;28;20050;-87
2023/08/12 10:20:32;;;;;;;0.70;0.70;;;19.70;99.90;;;;;;5016064;28;20050;-87
2023/08/12 10:22:59;;;;;;;0.60;0.60;;;20.10;99.90;;;;;;4994562;28;20522;-85
2023/08/12 10:25:30;;;;;;;0.68;0.68;;;20.00;99.90;;;;;;4993079;28;20046;-85
2023/08/12 10:27:56;;;;;;;0.70;0.70;;;20.10;99.90;;;;;;4996707;28;20050;-84
2023/08/12 10:30:21;;;;;;;0.60;0.60;;;19.90;99.90;;;;;;5000805;28;20129;-84
2023/08/12 10:32:47;;;;;;;0.73;0.73;;;20.00;99.90;;;;;;4997510;28;20050;-85
2023/08/12 10:35:13;;;;;;;0.73;0.73;;;20.60;99.90;;;;;;5007580;28;20069;-85
2023/08/12 10:37:39;;;;;;;0.65;0.65;;;20.40;99.90;;;;;;4995080;28;20078;-85
2023/08/12 10:40:07;;;;;;;0.73;0.73;;;20.10;99.90;;;;;;4989217;28;20534;-85
2023/08/12 10:42:43;;;;;;;0.75;0.75;;;20.10;99.90;;;;;;4996369;28;20407;-84
2023/08/12 10:45:10;;;;;;;0.77;0.77;;;20.40;99.90;;;;;;4994953;28;20597;-84
2023/08/12 10:48:17;;;;;;;0.65;0.65;;;20.40;99.90;;;;;;5001243;28;20495;-84
2023/08/12 10:50:46;;;;;;;0.70;0.70;;;20.90;99.90;;;;;;5012842;28;20058;-84
2023/08/12 10:53:32;;;;;;;0.70;0.70;;;21.00;99.90;;;;;;4976124;28;20679;-85
2023/08/12 10:56:11;;;;;;;0.80;0.80;;;20.00;99.90;;;;;;4992668;28;20053;-87
2023/08/12 10:58:47;;;;;;;0.70;0.70;;;21.00;99.90;;;;;;4995065;28;20054;-85
2023/08/12 11:01:19;;;;;;;0.80;0.80;;;20.70;99.90;;;;;;4994625;28;20466;-84
2023/08/12 11:03:47;;;;;;;0.70;0.70;;;20.20;99.90;;;;;;4991970;28;20046;-84
2023/08/12 11:06:13;;;;;;;0.73;0.73;;;21.30;99.90;;;;;;4993747;28;20409;-83
2023/08/12 11:08:52;;;;;;;0.82;0.82;;;21.20;99.90;;;;;;4993830;28;20057;-84
2023/08/12 11:11:24;;;;;;;0.70;0.70;;;20.80;99.90;;;;;;4994146;28;20139;-85
2023/08/12 11:13:57;;;;;;;0.70;0.70;;;20.50;99.90;;;;;;4993778;28;20057;-83
2023/08/12 11:16:35;;;;;;;0.65;0.65;;;20.80;99.90;;;;;;4992798;28;21302;-83
2023/08/12 11:19:02;;;;;;;0.65;0.65;;;21.30;99.90;;;;;;4995724;28;20081;-83
2023/08/12 11:21:28;;;;;;;0.75;0.75;;;20.90;99.90;;;;;;4980272;28;20041;-83
2023/08/12 11:23:55;;;;;;;0.63;0.63;;;20.90;99.90;;;;;;4995731;28;20092;-83
2023/08/12 11:26:23;;;;;;;0.60;0.60;;;21.20;99.90;;;;;;4990651;28;20061;-84
2023/08/12 11:28:49;;;;;;;0.60;0.60;;;21.00;99.90;;;;;;4991997;28;20064;-82
2023/08/12 11:31:19;;;;;;;0.60;0.60;;;21.10;99.90;;;;;;4992007;28;20488;-82
2023/08/12 11:33:44;;;;;;;0.70;0.70;;;21.10;99.90;;;;;;4991363;28;20048;-84
2023/08/12 11:36:10;;;;;;;0.70;0.70;;;20.70;99.90;;;;;;4991433;28;20511;-84
2023/08/12 11:38:37;;;;;;;0.70;0.70;;;21.00;99.90;;;;;;4991128;28;20041;-83
2023/08/12 11:41:03;;;;;;;0.65;0.65;;;20.80;99.90;;;;;;4991359;28;20918;-83
2023/08/12 11:43:30;;;;;;;0.70;0.70;;;20.70;99.90;;;;;;4990819;28;20057;-83
2023/08/12 11:45:56;;;;;;;0.65;0.65;;;20.70;99.90;;;;;;4974127;28;20050;-84
2023/08/12 11:48:23;;;;;;;0.60;0.60;;;21.00;99.90;;;;;;4992337;28;20062;-83
2023/08/12 11:50:49;;;;;;;0.65;0.65;;;20.90;99.90;;;;;;4990677;28;20121;-82
2023/08/12 11:53:16;;;;;;;0.60;0.60;;;21.00;99.90;;;;;;4991972;28;20049;-84
2023/08/12 11:55:41;;;;;;;0.60;0.60;;;21.00;99.90;;;;;;4990271;28;20052;-83
2023/08/12 11:58:07;;;;;;;0.60;0.60;;;21.50;99.90;;;;;;4991753;28;20049;-83
2023/08/12 12:00:33;;;;;;;0.50;0.50;;;21.50;99.90;;;;;;4990994;28;20041;-86
2023/08/12 12:02:59;;;;;;;0.50;0.50;;;21.70;99.90;;;;;;4991297;28;20053;-84
2023/08/12 12:05:30;;;;;;;0.50;0.50;;;21.90;99.90;;;;;;4980111;28;20077;-83
2023/08/12 12:07:56;;;;;;;0.50;0.50;;;22.30;99.90;;;;;;4991578;28;20041;-83
2023/08/12 12:10:30;;;;;;;0.40;0.40;;;22.20;99.90;;;;;;4976810;28;20052;-84
2023/08/12 12:12:56;;;;;;;0.43;0.43;;;22.40;99.90;;;;;;4987275;28;20065;-85
2023/08/12 12:15:22;;;;;;;0.50;0.50;;;22.80;99.90;;;;;;4990417;28;20045;-86
2023/08/12 12:17:50;;;;;;;0.50;0.50;;;23.00;99.90;;;;;;5008812;28;20041;-86
2023/08/12 12:20:16;;;;;;;0.50;0.50;;;23.20;99.90;;;;;;5008538;28;20042;-87
2023/08/12 12:22:43;;;;;;;0.40;0.40;;;23.60;99.90;;;;;;4975591;28;20048;-87
2023/08/12 12:25:12;;;;;;;0.52;0.52;;;23.30;99.90;;;;;;4989886;28;20050;-87
2023/08/12 12:27:39;;;;;;;0.55;0.55;;;23.10;99.90;;;;;;4993444;28;20136;-88
2023/08/12 12:30:12;;;;;;;0.60;0.60;;;22.70;99.90;;;;;;4993931;28;20050;-86
2023/08/12 12:32:38;;;;;;;0.60;0.60;;;22.60;99.90;;;;;;4994563;28;20061;-93
2023/08/12 12:35:07;;;;;;;0.68;0.68;;;22.60;99.90;;;;;;4995169;28;20046;-86
2023/08/12 12:37:33;;;;;;;0.60;0.60;;;22.80;99.90;;;;;;4989133;28;20073;-86
2023/08/12 12:39:58;;;;;;;0.60;0.60;;;23.10;99.90;;;;;;4994694;28;20133;-87
2023/08/12 12:42:24;;;;;;;0.60;0.60;;;23.00;99.90;;;;;;4995725;28;20034;-87
2023/08/12 12:44:50;;;;;;;0.63;0.63;;;22.70;99.90;;;;;;4982772;28;20106;-90
2023/08/12 12:47:16;;;;;;;0.63;0.63;;;22.50;99.90;;;;;;4986080;28;20104;-89